sensor_id;sensor_type;location;lat;lon;timestamp;P1;durP1;ratioP1;P2;durP2;ratioP2
6928;SDS011;3504;52.616;13.238;2023-01-05T00:01:17;6.20;;;2.90;;
6928;SDS011;3504;52.616;13.238;2023-01-05T00:06:18;6.00;;;2.30;;
6928;SDS011;3504;52.616;13.238;2023-01-05T00:11:19;9.73;;;2.80;;
6928;SDS011;3504;52.616;13.238;2023-01-05T00:16:41;7.13;;;2.83;;
6928;SDS011;3504;52.616;13.238;2023-01-05T00:22:00;9.43;;;2.83;;
6928;SDS011;3504;52.616;13.238;2023-01-05T00:27:19;7.60;;;2.60;;
6928;SDS011;3504;52.616;13.238;2023-01-05T00:32:20;8.87;;;2.90;;
6928;SDS011;3504;52.616;13.238;2023-01-05T00:37:21;13.77;;;2.73;;
6928;SDS011;3504;52.616;13.238;2023-01-05T00:42:24;8.50;;;3.43;;
6928;SDS011;3504;52.616;13.238;2023-01-05T00:47:25;12.63;;;2.83;;
6928;SDS011;3504;52.616;13.238;2023-01-05T00:52:26;8.57;;;2.97;;
6928;SDS011;3504;52.616;13.238;2023-01-05T00:57:26;8.30;;;2.67;;
6928;SDS011;3504;52.616;13.238;2023-01-05T01:02:28;11.20;;;2.87;;
6928;SDS011;3504;52.616;13.238;2023-01-05T01:07:29;13.80;;;3.47;;
6928;SDS011;3504;52.616;13.238;2023-01-05T01:12:29;7.70;;;2.60;;
6928;SDS011;3504;52.616;13.238;2023-01-05T01:17:30;9.77;;;2.60;;
6928;SDS011;3504;52.616;13.238;2023-01-05T01:22:31;9.67;;;2.97;;
6928;SDS011;3504;52.616;13.238;2023-01-05T01:27:33;8.50;;;2.80;;
6928;SDS011;3504;52.616;13.238;2023-01-05T01:32:34;10.30;;;2.53;;
6928;SDS011;3504;52.616;13.238;2023-01-05T01:37:35;10.83;;;2.60;;
6928;SDS011;3504;52.616;13.238;2023-01-05T01:42:36;13.13;;;3.90;;
6928;SDS011;3504;52.616;13.238;2023-01-05T01:47:41;11.40;;;2.67;;
6928;SDS011;3504;52.616;13.238;2023-01-05T01:52:49;8.10;;;2.73;;
6928;SDS011;3504;52.616;13.238;2023-01-05T01:57:51;9.73;;;2.47;;
6928;SDS011;3504;52.616;13.238;2023-01-05T02:02:53;8.73;;;2.47;;
6928;SDS011;3504;52.616;13.238;2023-01-05T02:07:56;11.27;;;2.60;;
6928;SDS011;3504;52.616;13.238;2023-01-05T02:13:01;9.10;;;2.67;;
6928;SDS011;3504;52.616;13.238;2023-01-05T02:18:43;10.67;;;2.93;;
6928;SDS011;3504;52.616;13.238;2023-01-05T02:24:52;4.30;;;2.13;;
6928;SDS011;3504;52.616;13.238;2023-01-05T02:41:20;7.17;;;2.73;;
6928;SDS011;3504;52.616;13.238;2023-01-05T02:46:27;9.07;;;2.70;;
6928;SDS011;3504;52.616;13.238;2023-01-05T02:51:32;9.53;;;2.70;;
6928;SDS011;3504;52.616;13.238;2023-01-05T02:56:39;7.80;;;2.10;;
6928;SDS011;3504;52.616;13.238;2023-01-05T03:01:56;5.53;;;2.00;;
6928;SDS011;3504;52.616;13.238;2023-01-05T03:07:04;8.70;;;2.83;;
6928;SDS011;3504;52.616;13.238;2023-01-05T03:18:08;7.20;;;2.77;;
6928;SDS011;3504;52.616;13.238;2023-01-05T03:23:14;10.77;;;2.93;;
6928;SDS011;3504;52.616;13.238;2023-01-05T03:34:18;12.57;;;2.70;;
6928;SDS011;3504;52.616;13.238;2023-01-05T03:39:57;9.70;;;2.47;;
6928;SDS011;3504;52.616;13.238;2023-01-05T03:45:01;9.90;;;2.53;;
6928;SDS011;3504;52.616;13.238;2023-01-05T03:50:05;12.90;;;3.23;;
6928;SDS011;3504;52.616;13.238;2023-01-05T03:55:06;8.33;;;3.23;;
6928;SDS011;3504;52.616;13.238;2023-01-05T04:00:07;9.93;;;2.60;;
6928;SDS011;3504;52.616;13.238;2023-01-05T04:05:18;10.83;;;2.63;;
6928;SDS011;3504;52.616;13.238;2023-01-05T04:10:18;9.17;;;2.67;;
6928;SDS011;3504;52.616;13.238;2023-01-05T04:15:19;10.40;;;3.00;;
6928;SDS011;3504;52.616;13.238;2023-01-05T04:20:20;7.10;;;2.90;;
6928;SDS011;3504;52.616;13.238;2023-01-05T04:25:21;11.20;;;2.70;;
6928;SDS011;3504;52.616;13.238;2023-01-05T04:30:22;5.97;;;2.30;;
6928;SDS011;3504;52.616;13.238;2023-01-05T04:35:23;4.20;;;2.07;;
6928;SDS011;3504;52.616;13.238;2023-01-05T04:40:24;6.40;;;2.27;;
6928;SDS011;3504;52.616;13.238;2023-01-05T04:45:27;10.17;;;2.23;;
6928;SDS011;3504;52.616;13.238;2023-01-05T04:50:28;11.23;;;2.83;;
6928;SDS011;3504;52.616;13.238;2023-01-05T04:55:30;5.83;;;2.47;;
6928;SDS011;3504;52.616;13.238;2023-01-05T05:00:31;10.90;;;2.87;;
6928;SDS011;3504;52.616;13.238;2023-01-05T05:05:33;8.60;;;2.13;;
6928;SDS011;3504;52.616;13.238;2023-01-05T05:10:35;3.93;;;2.07;;
6928;SDS011;3504;52.616;13.238;2023-01-05T05:15:35;4.90;;;2.03;;
6928;SDS011;3504;52.616;13.238;2023-01-05T05:20:38;4.90;;;2.50;;
6928;SDS011;3504;52.616;13.238;2023-01-05T05:25:43;7.77;;;2.67;;
6928;SDS011;3504;52.616;13.238;2023-01-05T05:30:44;6.80;;;2.47;;
6928;SDS011;3504;52.616;13.238;2023-01-05T05:35:47;7.07;;;1.97;;
6928;SDS011;3504;52.616;13.238;2023-01-05T05:40:47;5.90;;;2.27;;
6928;SDS011;3504;52.616;13.238;2023-01-05T05:45:48;8.07;;;2.27;;
6928;SDS011;3504;52.616;13.238;2023-01-05T05:50:49;4.03;;;1.63;;
6928;SDS011;3504;52.616;13.238;2023-01-05T05:55:49;1.57;;;0.90;;
6928;SDS011;3504;52.616;13.238;2023-01-05T06:00:50;1.17;;;1.00;;
6928;SDS011;3504;52.616;13.238;2023-01-05T06:05:51;1.30;;;1.00;;
6928;SDS011;3504;52.616;13.238;2023-01-05T06:10:52;2.53;;;1.20;;
6928;SDS011;3504;52.616;13.238;2023-01-05T06:15:52;1.90;;;0.97;;
6928;SDS011;3504;52.616;13.238;2023-01-05T06:20:53;1.53;;;0.90;;
6928;SDS011;3504;52.616;13.238;2023-01-05T06:25:54;0.63;;;0.63;;
6928;SDS011;3504;52.616;13.238;2023-01-05T06:30:54;1.53;;;0.80;;
6928;SDS011;3504;52.616;13.238;2023-01-05T06:35:55;1.93;;;0.80;;
6928;SDS011;3504;52.616;13.238;2023-01-05T06:40:57;1.80;;;0.80;;
6928;SDS011;3504;52.616;13.238;2023-01-05T06:45:58;1.70;;;0.60;;
6928;SDS011;3504;52.616;13.238;2023-01-05T06:50:59;4.10;;;1.17;;
6928;SDS011;3504;52.616;13.238;2023-01-05T06:55:59;1.60;;;0.80;;
6928;SDS011;3504;52.616;13.238;2023-01-05T07:01:00;1.50;;;1.00;;
6928;SDS011;3504;52.616;13.238;2023-01-05T07:06:00;3.20;;;1.00;;
6928;SDS011;3504;52.616;13.238;2023-01-05T07:11:03;1.40;;;0.87;;
6928;SDS011;3504;52.616;13.238;2023-01-05T07:16:03;1.80;;;1.10;;
6928;SDS011;3504;52.616;13.238;2023-01-05T07:21:04;2.60;;;1.00;;
6928;SDS011;3504;52.616;13.238;2023-01-05T07:26:06;2.40;;;1.07;;
6928;SDS011;3504;52.616;13.238;2023-01-05T07:31:08;1.63;;;1.07;;
6928;SDS011;3504;52.616;13.238;2023-01-05T07:36:08;2.80;;;0.90;;
6928;SDS011;3504;52.616;13.238;2023-01-05T07:41:09;1.30;;;1.20;;
6928;SDS011;3504;52.616;13.238;2023-01-05T07:46:09;1.73;;;0.90;;
6928;SDS011;3504;52.616;13.238;2023-01-05T07:51:10;1.53;;;1.00;;
6928;SDS011;3504;52.616;13.238;2023-01-05T07:56:11;2.53;;;0.90;;
6928;SDS011;3504;52.616;13.238;2023-01-05T08:01:12;2.83;;;1.20;;
6928;SDS011;3504;52.616;13.238;2023-01-05T08:06:15;1.47;;;1.17;;
6928;SDS011;3504;52.616;13.238;2023-01-05T08:11:18;2.57;;;1.00;;
6928;SDS011;3504;52.616;13.238;2023-01-05T08:16:21;1.70;;;0.70;;
6928;SDS011;3504;52.616;13.238;2023-01-05T08:21:22;1.70;;;1.10;;
6928;SDS011;3504;52.616;13.238;2023-01-05T08:26:22;2.13;;;0.80;;
6928;SDS011;3504;52.616;13.238;2023-01-05T08:31:24;2.13;;;0.80;;
6928;SDS011;3504;52.616;13.238;2023-01-05T08:36:27;0.80;;;0.60;;
6928;SDS011;3504;52.616;13.238;2023-01-05T08:41:31;0.97;;;0.67;;
6928;SDS011;3504;52.616;13.238;2023-01-05T08:46:36;1.27;;;0.87;;
6928;SDS011;3504;52.616;13.238;2023-01-05T08:51:37;1.40;;;0.90;;
6928;SDS011;3504;52.616;13.238;2023-01-05T08:56:37;1.63;;;0.80;;
6928;SDS011;3504;52.616;13.238;2023-01-05T09:01:38;1.30;;;0.93;;
6928;SDS011;3504;52.616;13.238;2023-01-05T09:06:39;1.53;;;0.70;;
6928;SDS011;3504;52.616;13.238;2023-01-05T09:11:40;3.10;;;1.00;;
6928;SDS011;3504;52.616;13.238;2023-01-05T09:16:40;1.97;;;0.87;;
6928;SDS011;3504;52.616;13.238;2023-01-05T09:21:41;1.73;;;0.87;;
6928;SDS011;3504;52.616;13.238;2023-01-05T09:26:41;1.97;;;0.80;;
6928;SDS011;3504;52.616;13.238;2023-01-05T09:31:42;3.53;;;1.03;;
6928;SDS011;3504;52.616;13.238;2023-01-05T09:36:43;2.60;;;0.90;;
6928;SDS011;3504;52.616;13.238;2023-01-05T09:41:45;3.80;;;1.17;;
6928;SDS011;3504;52.616;13.238;2023-01-05T09:46:53;2.57;;;1.00;;
6928;SDS011;3504;52.616;13.238;2023-01-05T09:52:02;2.77;;;1.40;;
6928;SDS011;3504;52.616;13.238;2023-01-05T09:57:13;2.83;;;1.10;;
6928;SDS011;3504;52.616;13.238;2023-01-05T10:02:36;1.73;;;1.17;;
6928;SDS011;3504;52.616;13.238;2023-01-05T10:12:50;1.77;;;1.33;;
6928;SDS011;3504;52.616;13.238;2023-01-05T10:18:13;4.50;;;1.43;;
6928;SDS011;3504;52.616;13.238;2023-01-05T10:28:55;6.20;;;1.40;;
6928;SDS011;3504;52.616;13.238;2023-01-05T10:34:22;6.67;;;1.40;;
6928;SDS011;3504;52.616;13.238;2023-01-05T10:45:39;7.30;;;1.43;;
6928;SDS011;3504;52.616;13.238;2023-01-05T10:50:41;5.63;;;1.10;;
6928;SDS011;3504;52.616;13.238;2023-01-05T10:55:47;5.30;;;1.27;;
6928;SDS011;3504;52.616;13.238;2023-01-05T11:01:02;6.13;;;1.60;;
6928;SDS011;3504;52.616;13.238;2023-01-05T11:06:26;3.10;;;1.10;;
6928;SDS011;3504;52.616;13.238;2023-01-05T11:11:29;5.63;;;1.73;;
6928;SDS011;3504;52.616;13.238;2023-01-05T11:16:30;5.03;;;1.50;;
6928;SDS011;3504;52.616;13.238;2023-01-05T11:26:39;3.50;;;1.63;;
6928;SDS011;3504;52.616;13.238;2023-01-05T11:31:49;7.40;;;1.63;;
6928;SDS011;3504;52.616;13.238;2023-01-05T11:36:57;11.57;;;1.90;;
6928;SDS011;3504;52.616;13.238;2023-01-05T11:47:36;4.80;;;1.60;;
6928;SDS011;3504;52.616;13.238;2023-01-05T11:52:47;5.17;;;1.50;;
6928;SDS011;3504;52.616;13.238;2023-01-05T11:57:51;4.97;;;1.50;;
6928;SDS011;3504;52.616;13.238;2023-01-05T12:03:13;8.20;;;1.90;;
6928;SDS011;3504;52.616;13.238;2023-01-05T12:08:30;4.43;;;1.60;;
6928;SDS011;3504;52.616;13.238;2023-01-05T12:30:18;3.27;;;1.27;;
6928;SDS011;3504;52.616;13.238;2023-01-05T12:46:36;5.53;;;1.90;;
6928;SDS011;3504;52.616;13.238;2023-01-05T12:51:51;3.07;;;1.47;;
6928;SDS011;3504;52.616;13.238;2023-01-05T12:57:09;2.27;;;1.20;;
6928;SDS011;3504;52.616;13.238;2023-01-05T13:02:34;2.87;;;1.30;;
6928;SDS011;3504;52.616;13.238;2023-01-05T13:12:50;6.27;;;1.30;;
6928;SDS011;3504;52.616;13.238;2023-01-05T13:17:57;4.43;;;1.10;;
6928;SDS011;3504;52.616;13.238;2023-01-05T13:23:19;4.60;;;1.50;;
6928;SDS011;3504;52.616;13.238;2023-01-05T13:28:24;3.60;;;1.30;;
6928;SDS011;3504;52.616;13.238;2023-01-05T13:50:05;2.43;;;1.00;;
6928;SDS011;3504;52.616;13.238;2023-01-05T13:55:21;3.23;;;1.23;;
6928;SDS011;3504;52.616;13.238;2023-01-05T14:00:24;5.00;;;1.33;;
6928;SDS011;3504;52.616;13.238;2023-01-05T14:05:52;3.20;;;1.17;;
6928;SDS011;3504;52.616;13.238;2023-01-05T14:16:43;3.93;;;1.57;;
6928;SDS011;3504;52.616;13.238;2023-01-05T14:27:05;2.87;;;1.40;;
6928;SDS011;3504;52.616;13.238;2023-01-05T14:32:13;2.37;;;1.23;;
6928;SDS011;3504;52.616;13.238;2023-01-05T14:37:28;2.57;;;1.10;;
6928;SDS011;3504;52.616;13.238;2023-01-05T14:42:36;5.07;;;1.60;;
6928;SDS011;3504;52.616;13.238;2023-01-05T14:47:39;2.70;;;1.40;;
6928;SDS011;3504;52.616;13.238;2023-01-05T14:52:58;5.13;;;2.27;;
6928;SDS011;3504;52.616;13.238;2023-01-05T15:03:37;4.60;;;1.60;;
6928;SDS011;3504;52.616;13.238;2023-01-05T15:14:31;4.10;;;1.60;;
6928;SDS011;3504;52.616;13.238;2023-01-05T15:25:33;4.40;;;1.60;;
6928;SDS011;3504;52.616;13.238;2023-01-05T15:42:00;3.53;;;1.87;;
6928;SDS011;3504;52.616;13.238;2023-01-05T15:47:07;3.17;;;1.90;;
6928;SDS011;3504;52.616;13.238;2023-01-05T15:52:20;3.17;;;2.13;;
6928;SDS011;3504;52.616;13.238;2023-01-05T15:57:35;4.07;;;2.10;;
6928;SDS011;3504;52.616;13.238;2023-01-05T16:02:36;4.53;;;1.97;;
6928;SDS011;3504;52.616;13.238;2023-01-05T16:07:40;7.57;;;3.00;;
6928;SDS011;3504;52.616;13.238;2023-01-05T16:12:42;9.27;;;3.57;;
6928;SDS011;3504;52.616;13.238;2023-01-05T16:17:43;6.37;;;2.70;;
6928;SDS011;3504;52.616;13.238;2023-01-05T16:22:46;6.73;;;2.67;;
6928;SDS011;3504;52.616;13.238;2023-01-05T16:28:04;3.67;;;2.07;;
6928;SDS011;3504;52.616;13.238;2023-01-05T16:53:50;6.20;;;2.80;;
6928;SDS011;3504;52.616;13.238;2023-01-05T16:58:59;7.07;;;2.83;;
6928;SDS011;3504;52.616;13.238;2023-01-05T17:04:10;7.13;;;3.73;;
6928;SDS011;3504;52.616;13.238;2023-01-05T17:09:20;5.50;;;2.50;;
6928;SDS011;3504;52.616;13.238;2023-01-05T17:14:29;8.87;;;3.13;;
6928;SDS011;3504;52.616;13.238;2023-01-05T17:19:30;6.40;;;3.33;;
6928;SDS011;3504;52.616;13.238;2023-01-05T17:24:34;10.53;;;5.07;;
6928;SDS011;3504;52.616;13.238;2023-01-05T17:29:34;9.27;;;3.90;;
6928;SDS011;3504;52.616;13.238;2023-01-05T17:34:36;6.23;;;2.90;;
6928;SDS011;3504;52.616;13.238;2023-01-05T17:39:36;6.50;;;2.90;;
6928;SDS011;3504;52.616;13.238;2023-01-05T17:44:37;3.50;;;2.10;;
6928;SDS011;3504;52.616;13.238;2023-01-05T17:49:37;4.30;;;2.17;;
6928;SDS011;3504;52.616;13.238;2023-01-05T17:54:38;4.53;;;2.97;;
6928;SDS011;3504;52.616;13.238;2023-01-05T17:59:40;7.40;;;3.27;;
6928;SDS011;3504;52.616;13.238;2023-01-05T18:04:40;5.07;;;3.27;;
6928;SDS011;3504;52.616;13.238;2023-01-05T18:09:40;3.87;;;2.13;;
6928;SDS011;3504;52.616;13.238;2023-01-05T18:14:41;8.53;;;3.43;;
6928;SDS011;3504;52.616;13.238;2023-01-05T18:19:42;7.90;;;4.60;;
6928;SDS011;3504;52.616;13.238;2023-01-05T18:24:43;8.53;;;4.03;;
6928;SDS011;3504;52.616;13.238;2023-01-05T18:29:44;6.67;;;3.27;;
6928;SDS011;3504;52.616;13.238;2023-01-05T18:34:45;6.27;;;3.37;;
6928;SDS011;3504;52.616;13.238;2023-01-05T18:39:45;5.20;;;2.07;;
6928;SDS011;3504;52.616;13.238;2023-01-05T18:44:46;5.07;;;2.20;;
6928;SDS011;3504;52.616;13.238;2023-01-05T18:49:46;5.53;;;2.47;;
6928;SDS011;3504;52.616;13.238;2023-01-05T18:54:47;5.63;;;3.23;;
6928;SDS011;3504;52.616;13.238;2023-01-05T18:59:47;4.73;;;2.33;;
6928;SDS011;3504;52.616;13.238;2023-01-05T19:04:48;5.43;;;2.57;;
6928;SDS011;3504;52.616;13.238;2023-01-05T19:09:48;6.57;;;2.83;;
6928;SDS011;3504;52.616;13.238;2023-01-05T19:14:49;5.43;;;2.60;;
6928;SDS011;3504;52.616;13.238;2023-01-05T19:19:49;7.90;;;2.40;;
6928;SDS011;3504;52.616;13.238;2023-01-05T19:24:50;5.10;;;2.83;;
6928;SDS011;3504;52.616;13.238;2023-01-05T19:29:50;4.07;;;2.50;;
6928;SDS011;3504;52.616;13.238;2023-01-05T19:34:51;7.23;;;2.90;;
6928;SDS011;3504;52.616;13.238;2023-01-05T19:39:51;5.40;;;2.13;;
6928;SDS011;3504;52.616;13.238;2023-01-05T19:44:52;7.60;;;2.50;;
6928;SDS011;3504;52.616;13.238;2023-01-05T19:49:52;5.37;;;2.63;;
6928;SDS011;3504;52.616;13.238;2023-01-05T19:54:53;3.03;;;1.87;;
6928;SDS011;3504;52.616;13.238;2023-01-05T19:59:53;5.70;;;2.73;;
6928;SDS011;3504;52.616;13.238;2023-01-05T20:04:54;4.13;;;2.93;;
6928;SDS011;3504;52.616;13.238;2023-01-05T20:09:54;7.87;;;2.80;;
6928;SDS011;3504;52.616;13.238;2023-01-05T20:14:57;7.90;;;2.47;;
6928;SDS011;3504;52.616;13.238;2023-01-05T20:19:57;8.00;;;2.30;;
6928;SDS011;3504;52.616;13.238;2023-01-05T20:24:58;7.10;;;2.07;;
6928;SDS011;3504;52.616;13.238;2023-01-05T20:29:58;5.47;;;2.50;;
6928;SDS011;3504;52.616;13.238;2023-01-05T20:34:59;4.53;;;2.20;;
6928;SDS011;3504;52.616;13.238;2023-01-05T20:40:00;3.87;;;2.53;;
6928;SDS011;3504;52.616;13.238;2023-01-05T20:45:01;5.10;;;2.60;;
6928;SDS011;3504;52.616;13.238;2023-01-05T20:50:02;6.10;;;2.97;;
6928;SDS011;3504;52.616;13.238;2023-01-05T20:55:03;5.43;;;2.60;;
6928;SDS011;3504;52.616;13.238;2023-01-05T21:00:04;6.57;;;3.23;;
6928;SDS011;3504;52.616;13.238;2023-01-05T21:05:05;5.03;;;3.10;;
6928;SDS011;3504;52.616;13.238;2023-01-05T21:10:06;6.07;;;2.70;;
6928;SDS011;3504;52.616;13.238;2023-01-05T21:15:07;6.30;;;3.37;;
6928;SDS011;3504;52.616;13.238;2023-01-05T21:20:08;6.40;;;3.70;;
6928;SDS011;3504;52.616;13.238;2023-01-05T21:25:09;7.20;;;3.30;;
6928;SDS011;3504;52.616;13.238;2023-01-05T21:30:10;7.20;;;3.23;;
6928;SDS011;3504;52.616;13.238;2023-01-05T21:35:11;7.97;;;4.67;;
6928;SDS011;3504;52.616;13.238;2023-01-05T21:40:12;5.80;;;3.93;;
6928;SDS011;3504;52.616;13.238;2023-01-05T21:45:12;7.23;;;4.67;;
6928;SDS011;3504;52.616;13.238;2023-01-05T21:50:12;6.30;;;4.07;;
6928;SDS011;3504;52.616;13.238;2023-01-05T21:55:33;9.10;;;5.73;;
6928;SDS011;3504;52.616;13.238;2023-01-05T22:00:56;9.80;;;4.80;;
6928;SDS011;3504;52.616;13.238;2023-01-05T22:05:58;8.50;;;5.20;;
6928;SDS011;3504;52.616;13.238;2023-01-05T22:10:59;9.57;;;5.90;;
6928;SDS011;3504;52.616;13.238;2023-01-05T22:16:02;11.93;;;6.60;;
6928;SDS011;3504;52.616;13.238;2023-01-05T22:21:05;13.67;;;7.83;;
6928;SDS011;3504;52.616;13.238;2023-01-05T22:26:15;12.77;;;7.40;;
6928;SDS011;3504;52.616;13.238;2023-01-05T22:31:19;11.40;;;7.40;;
6928;SDS011;3504;52.616;13.238;2023-01-05T22:36:22;14.73;;;6.83;;
6928;SDS011;3504;52.616;13.238;2023-01-05T22:41:26;18.27;;;8.40;;
6928;SDS011;3504;52.616;13.238;2023-01-05T22:46:29;12.67;;;7.80;;
6928;SDS011;3504;52.616;13.238;2023-01-05T22:51:31;13.53;;;7.60;;
6928;SDS011;3504;52.616;13.238;2023-01-05T22:56:33;14.13;;;7.33;;
6928;SDS011;3504;52.616;13.238;2023-01-05T23:01:35;10.50;;;5.87;;
6928;SDS011;3504;52.616;13.238;2023-01-05T23:06:42;11.53;;;6.37;;
6928;SDS011;3504;52.616;13.238;2023-01-05T23:11:43;11.90;;;6.03;;
6928;SDS011;3504;52.616;13.238;2023-01-05T23:16:44;10.03;;;5.20;;
6928;SDS011;3504;52.616;13.238;2023-01-05T23:21:45;6.83;;;4.63;;
6928;SDS011;3504;52.616;13.238;2023-01-05T23:26:47;9.23;;;5.27;;
6928;SDS011;3504;52.616;13.238;2023-01-05T23:31:48;10.20;;;5.33;;
6928;SDS011;3504;52.616;13.238;2023-01-05T23:36:48;6.97;;;4.73;;
6928;SDS011;3504;52.616;13.238;2023-01-05T23:41:49;6.87;;;4.80;;
6928;SDS011;3504;52.616;13.238;2023-01-05T23:46:49;7.73;;;4.80;;
6928;SDS011;3504;52.616;13.238;2023-01-05T23:51:49;8.90;;;4.77;;
6928;SDS011;3504;52.616;13.238;2023-01-05T23:56:50;7.03;;;4.07;;
